Time;durP1;ratioP1;P1;durP2;ratioP2;P2;SDS_P1;SDS_P2;PMS_P1;PMS_P2;Temp;Humidity;BMP_temperature;BMP_pressure;BME280_temperature;BME280_humidity;BME280_pressure;Samples;Min_cycle;Max_cycle;Signal;HPM_P1;HPM_P2
2021/11/27 00:02:19;;;;;;;14.88;4.28;;;;;;;;;;5056662;28;20025;-74
2021/11/27 00:04:45;;;;;;;15.32;5.20;;;;;;;;;;5060063;28;20565;-76
2021/11/27 00:07:11;;;;;;;16.48;4.43;;;;;;;;;;5062242;28;20432;-75
2021/11/27 00:09:37;;;;;;;13.48;3.35;;;;;;;;;;5047875;28;20021;-77
2021/11/27 00:12:03;;;;;;;11.93;3.92;;;;;;;;;;5060726;28;20066;-74
2021/11/27 00:14:31;;;;;;;13.30;4.03;;;;;;;;;;5064651;28;20044;-75
2021/11/27 00:16:57;;;;;;;10.82;3.40;;;;;;;;;;5065458;28;20021;-76
2021/11/27 00:19:23;;;;;;;9.48;3.80;;;;;;;;;;5064331;28;20021;-78
2021/11/27 00:21:49;;;;;;;9.10;3.10;;;;;;;;;;5056896;28;20028;-75
2021/11/27 00:24:15;;;;;;;13.35;4.25;;;;;;;;;;5065068;28;20116;-78
2021/11/27 00:26:41;;;;;;;13.07;3.95;;;;;;;;;;5063639;28;20059;-74
2021/11/27 00:29:08;;;;;;;13.90;4.05;;;;;;;;;;5063362;28;20032;-73
2021/11/27 00:31:37;;;;;;;9.45;3.88;;;;;;;;;;5064692;28;20028;-75
2021/11/27 00:34:03;;;;;;;8.57;3.70;;;;;;;;;;5064678;28;20025;-77
2021/11/27 00:36:29;;;;;;;9.57;3.30;;;;;;;;;;5064999;28;20029;-73
2021/11/27 00:38:56;;;;;;;9.77;2.88;;;;;;;;;;5064129;28;20025;-75
2021/11/27 00:41:22;;;;;;;12.38;3.80;;;;;;;;;;5062933;28;20124;-77
2021/11/27 00:43:48;;;;;;;12.70;3.80;;;;;;;;;;5064763;28;20081;-72
2021/11/27 00:46:14;;;;;;;13.48;3.75;;;;;;;;;;5065398;28;20029;-76
2021/11/27 00:48:40;;;;;;;15.63;3.22;;;;;;;;;;5064919;28;20033;-73
2021/11/27 00:51:08;;;;;;;10.90;4.15;;;;;;;;;;5065022;28;20037;-74
2021/11/27 00:53:34;;;;;;;9.02;3.03;;;;;;;;;;5065347;28;20048;-74
2021/11/27 00:56:01;;;;;;;14.25;3.95;;;;;;;;;;5039778;28;20052;-77
2021/11/27 00:58:27;;;;;;;18.35;3.30;;;;;;;;;;5063449;28;20025;-75
2021/11/27 01:00:58;;;;;;;12.60;3.85;;;;;;;;;;5064533;28;20111;-75
2021/11/27 01:03:26;;;;;;;11.15;3.50;;;;;;;;;;5064406;28;20025;-74
2021/11/27 01:05:52;;;;;;;9.30;4.03;;;;;;;;;;5047197;28;20029;-75
2021/11/27 01:08:18;;;;;;;14.85;3.20;;;;;;;;;;5065082;28;20078;-76
2021/11/27 01:10:49;;;;;;;10.32;3.38;;;;;;;;;;5064986;28;20029;-76
2021/11/27 01:13:15;;;;;;;6.63;3.25;;;;;;;;;;5033328;28;20025;-74
2021/11/27 01:15:41;;;;;;;6.28;2.67;;;;;;;;;;5065297;28;20395;-77
2021/11/27 01:18:07;;;;;;;7.35;3.28;;;;;;;;;;5066080;28;20025;-74
2021/11/27 01:20:37;;;;;;;9.25;4.45;;;;;;;;;;5064920;28;20035;-72
2021/11/27 01:23:03;;;;;;;7.63;2.78;;;;;;;;;;5064519;28;20029;-78
2021/11/27 01:25:29;;;;;;;6.03;3.30;;;;;;;;;;5053178;28;20094;-77
2021/11/27 01:27:55;;;;;;;12.45;3.20;;;;;;;;;;5064462;28;20064;-73
2021/11/27 01:30:22;;;;;;;7.75;3.35;;;;;;;;;;5065087;28;20065;-76
2021/11/27 01:32:48;;;;;;;9.07;2.83;;;;;;;;;;5064064;28;20048;-77
2021/11/27 01:35:14;;;;;;;13.60;2.90;;;;;;;;;;5064615;28;20495;-76
2021/11/27 01:37:41;;;;;;;13.35;2.88;;;;;;;;;;5064251;28;20044;-74
2021/11/27 01:40:09;;;;;;;8.77;3.70;;;;;;;;;;5056415;28;20018;-76
2021/11/27 01:42:35;;;;;;;10.90;3.05;;;;;;;;;;5056937;28;20025;-77
2021/11/27 01:45:01;;;;;;;7.78;2.63;;;;;;;;;;5046520;28;20045;-75
2021/11/27 01:47:28;;;;;;;10.25;2.70;;;;;;;;;;5060350;28;20021;-75
2021/11/27 01:49:54;;;;;;;12.93;3.40;;;;;;;;;;5065703;28;20029;-77
2021/11/27 01:52:20;;;;;;;11.35;3.25;;;;;;;;;;5055369;28;20051;-76
2021/11/27 01:54:46;;;;;;;12.48;3.13;;;;;;;;;;5059647;28;20021;-78
2021/11/27 01:57:12;;;;;;;17.90;2.95;;;;;;;;;;5063976;28;20029;-76
2021/11/27 01:59:39;;;;;;;9.35;3.33;;;;;;;;;;5065180;28;20357;-75
2021/11/27 02:02:08;;;;;;;6.28;2.53;;;;;;;;;;5059517;28;20028;-78
2021/11/27 02:04:34;;;;;;;6.15;2.47;;;;;;;;;;5064169;28;20053;-77
2021/11/27 02:07:01;;;;;;;10.05;2.33;;;;;;;;;;5064073;28;20048;-73
2021/11/27 02:09:28;;;;;;;5.72;2.13;;;;;;;;;;5046866;28;20028;-75
2021/11/27 02:11:56;;;;;;;5.30;2.95;;;;;;;;;;5062650;28;20036;-74
2021/11/27 02:14:22;;;;;;;13.20;2.65;;;;;;;;;;5065563;28;20057;-75
2021/11/27 02:16:49;;;;;;;7.10;2.30;;;;;;;;;;5064722;28;20021;-74
2021/11/27 02:19:16;;;;;;;7.38;2.50;;;;;;;;;;5064731;28;20024;-77
2021/11/27 02:21:44;;;;;;;9.35;2.83;;;;;;;;;;5046804;28;20047;-76
2021/11/27 02:24:11;;;;;;;9.77;2.58;;;;;;;;;;5064908;28;20449;-76
2021/11/27 02:26:37;;;;;;;9.88;3.67;;;;;;;;;;5058172;28;20021;-75
2021/11/27 02:29:07;;;;;;;8.43;2.63;;;;;;;;;;5062253;28;20041;-76
2021/11/27 02:31:34;;;;;;;8.13;3.38;;;;;;;;;;5057550;28;20430;-76
2021/11/27 02:34:00;;;;;;;8.23;2.70;;;;;;;;;;5064839;28;20027;-71
2021/11/27 02:36:27;;;;;;;7.07;2.53;;;;;;;;;;5064295;28;20040;-74
2021/11/27 02:38:54;;;;;;;12.88;2.90;;;;;;;;;;5064772;28;20032;-76
2021/11/27 02:41:20;;;;;;;10.80;3.40;;;;;;;;;;5068704;28;20017;-75
2021/11/27 02:43:46;;;;;;;8.13;2.60;;;;;;;;;;5065064;28;20048;-74
2021/11/27 02:46:12;;;;;;;8.43;3.10;;;;;;;;;;5066220;28;20036;-74
2021/11/27 02:48:38;;;;;;;7.45;2.42;;;;;;;;;;5065198;28;20025;-76
2021/11/27 02:51:04;;;;;;;7.65;2.08;;;;;;;;;;5062688;28;20029;-74
2021/11/27 02:53:31;;;;;;;5.68;2.40;;;;;;;;;;5060046;28;20040;-78
2021/11/27 02:55:57;;;;;;;10.48;2.55;;;;;;;;;;5051674;28;20067;-75
2021/11/27 02:58:23;;;;;;;9.52;2.38;;;;;;;;;;5064140;28;20063;-74
2021/11/27 03:00:51;;;;;;;5.28;2.15;;;;;;;;;;5055713;28;20089;-76
2021/11/27 03:03:17;;;;;;;8.52;2.63;;;;;;;;;;5061637;28;20464;-75
2021/11/27 03:05:44;;;;;;;11.30;3.30;;;;;;;;;;5063125;28;20147;-73
2021/11/27 03:08:10;;;;;;;6.88;2.35;;;;;;;;;;5063978;28;20032;-73
2021/11/27 03:10:36;;;;;;;6.18;2.17;;;;;;;;;;5054834;28;20032;-77
2021/11/27 03:13:02;;;;;;;2.30;1.70;;;;;;;;;;5059850;28;20021;-78
2021/11/27 03:15:29;;;;;;;6.40;2.40;;;;;;;;;;5063925;28;20033;-75
2021/11/27 03:17:55;;;;;;;9.80;2.40;;;;;;;;;;5063679;28;20025;-75
2021/11/27 03:20:21;;;;;;;5.97;2.50;;;;;;;;;;5044682;28;20036;-73
2021/11/27 03:22:48;;;;;;;7.72;2.20;;;;;;;;;;5062509;28;20029;-77
2021/11/27 03:25:15;;;;;;;4.03;1.92;;;;;;;;;;5061967;28;20040;-75
2021/11/27 03:27:41;;;;;;;6.97;2.40;;;;;;;;;;5045179;28;20033;-74
2021/11/27 03:30:09;;;;;;;2.67;1.70;;;;;;;;;;5063158;28;20025;-75
2021/11/27 03:32:35;;;;;;;3.88;2.30;;;;;;;;;;5062757;28;20029;-75
2021/11/27 03:35:01;;;;;;;5.03;1.90;;;;;;;;;;5062160;28;20551;-75
2021/11/27 03:37:27;;;;;;;2.42;1.90;;;;;;;;;;5062231;28;20029;-75
2021/11/27 03:39:53;;;;;;;5.78;1.98;;;;;;;;;;5063216;28;20028;-73
2021/11/27 03:42:20;;;;;;;5.47;2.22;;;;;;;;;;5063122;28;20031;-71
2021/11/27 03:44:46;;;;;;;2.47;1.85;;;;;;;;;;5061487;28;20053;-76
2021/11/27 03:47:13;;;;;;;5.60;2.35;;;;;;;;;;5062930;28;20039;-77
2021/11/27 03:49:39;;;;;;;4.70;2.25;;;;;;;;;;5061816;28;20036;-75
2021/11/27 03:52:06;;;;;;;2.72;2.08;;;;;;;;;;5062258;28;20025;-74
2021/11/27 03:54:32;;;;;;;3.85;2.17;;;;;;;;;;5061743;28;20025;-74
2021/11/27 03:56:58;;;;;;;5.93;1.95;;;;;;;;;;5063228;28;20075;-77
2021/11/27 03:59:24;;;;;;;6.30;2.50;;;;;;;;;;5062453;28;20021;-76
2021/11/27 04:01:51;;;;;;;11.63;2.70;;;;;;;;;;5056398;28;20541;-78
2021/11/27 04:04:17;;;;;;;8.13;2.08;;;;;;;;;;5053701;28;20029;-78
2021/11/27 04:06:43;;;;;;;3.85;1.75;;;;;;;;;;5063095;28;20033;-75
2021/11/27 04:09:11;;;;;;;6.45;1.90;;;;;;;;;;5063301;28;20029;-76
2021/11/27 04:11:38;;;;;;;9.70;2.58;;;;;;;;;;5062932;28;20021;-77
2021/11/27 04:14:05;;;;;;;3.25;2.60;;;;;;;;;;5060850;28;20037;-75
2021/11/27 04:16:31;;;;;;;5.40;2.78;;;;;;;;;;5062651;28;20045;-76
2021/11/27 04:18:57;;;;;;;4.00;1.88;;;;;;;;;;5063808;28;20025;-76
2021/11/27 04:21:23;;;;;;;5.63;2.17;;;;;;;;;;5062864;28;20025;-73
2021/11/27 04:23:50;;;;;;;6.68;2.58;;;;;;;;;;5062815;28;20029;-75
2021/11/27 04:26:17;;;;;;;5.00;2.30;;;;;;;;;;5062511;28;20029;-78
2021/11/27 04:28:43;;;;;;;6.80;2.28;;;;;;;;;;5062168;28;20097;-73
2021/11/27 04:31:10;;;;;;;4.82;1.88;;;;;;;;;;5062265;28;20383;-76
2021/11/27 04:33:37;;;;;;;8.02;2.05;;;;;;;;;;5062650;28;20053;-76
2021/11/27 04:36:03;;;;;;;3.50;1.67;;;;;;;;;;5056120;28;20381;-73
2021/11/27 04:38:30;;;;;;;3.80;1.40;;;;;;;;;;5030903;28;20025;-74
2021/11/27 04:40:56;;;;;;;6.88;2.50;;;;;;;;;;5066182;28;20550;-74
2021/11/27 04:43:22;;;;;;;2.67;1.48;;;;;;;;;;5066274;28;20080;-75
2021/11/27 04:45:49;;;;;;;5.68;1.92;;;;;;;;;;5060444;28;20021;-74
2021/11/27 04:48:15;;;;;;;2.40;1.70;;;;;;;;;;5066907;28;20059;-75
2021/11/27 04:50:42;;;;;;;3.72;1.85;;;;;;;;;;5052882;28;20083;-77
2021/11/27 04:53:08;;;;;;;1.63;1.52;;;;;;;;;;5063205;28;20051;-71
2021/11/27 04:55:34;;;;;;;4.30;1.70;;;;;;;;;;5065802;28;20029;-78
2021/11/27 04:58:01;;;;;;;4.55;1.67;;;;;;;;;;5065398;28;20025;-75
2021/11/27 05:00:30;;;;;;;4.22;1.83;;;;;;;;;;5064991;28;20028;-73
2021/11/27 05:02:56;;;;;;;5.55;1.88;;;;;;;;;;5065460;28;20025;-78
2021/11/27 05:05:23;;;;;;;6.10;2.05;;;;;;;;;;5057975;28;20107;-76
2021/11/27 05:07:49;;;;;;;4.45;1.98;;;;;;;;;;5066792;28;20064;-74
2021/11/27 05:10:15;;;;;;;2.88;1.50;;;;;;;;;;5066288;28;20040;-76
2021/11/27 05:12:41;;;;;;;3.20;1.63;;;;;;;;;;5066390;28;20039;-79
2021/11/27 05:15:08;;;;;;;2.92;2.25;;;;;;;;;;5064027;28;20052;-74
2021/11/27 05:17:35;;;;;;;5.68;2.15;;;;;;;;;;5065712;28;20371;-73
2021/11/27 05:20:01;;;;;;;4.80;3.25;;;;;;;;;;5065435;28;20089;-77
2021/11/27 05:22:27;;;;;;;7.68;2.15;;;;;;;;;;5065323;28;20025;-75
2021/11/27 05:24:53;;;;;;;5.20;2.20;;;;;;;;;;5046611;28;20048;-76
2021/11/27 05:27:20;;;;;;;3.88;1.60;;;;;;;;;;5063733;28;20085;-77
2021/11/27 05:29:48;;;;;;;5.53;2.30;;;;;;;;;;5064686;28;20025;-74
2021/11/27 05:32:23;;;;;;;6.25;2.08;;;;;;;;;;5064355;28;20021;-74
2021/11/27 05:34:50;;;;;;;2.97;1.70;;;;;;;;;;5054501;28;20088;-77
2021/11/27 05:37:16;;;;;;;5.35;2.10;;;;;;;;;;5063788;28;20046;-73
2021/11/27 05:39:43;;;;;;;3.80;2.15;;;;;;;;;;5055426;28;20020;-77
2021/11/27 05:42:10;;;;;;;6.97;2.50;;;;;;;;;;5057724;28;20035;-77
2021/11/27 05:44:37;;;;;;;3.13;1.90;;;;;;;;;;5058799;28;20053;-73
2021/11/27 05:47:04;;;;;;;6.68;2.42;;;;;;;;;;5065252;28;20499;-75
2021/11/27 05:49:30;;;;;;;3.83;2.20;;;;;;;;;;5064478;28;20049;-76
2021/11/27 05:51:56;;;;;;;3.55;2.10;;;;;;;;;;5065351;28;20025;-74
2021/11/27 05:54:22;;;;;;;9.43;3.35;;;;;;;;;;5065769;28;20056;-74
2021/11/27 05:56:48;;;;;;;8.15;2.55;;;;;;;;;;5066161;28;20013;-74
2021/11/27 05:59:14;;;;;;;6.25;2.20;;;;;;;;;;5066198;28;20032;-74
2021/11/27 06:01:40;;;;;;;3.20;1.85;;;;;;;;;;5065362;28;20025;-76
2021/11/27 06:04:07;;;;;;;5.65;2.20;;;;;;;;;;5066735;28;20029;-73
2021/11/27 06:06:33;;;;;;;7.43;2.92;;;;;;;;;;5062118;28;20079;-74
2021/11/27 06:09:00;;;;;;;7.25;2.17;;;;;;;;;;5067283;28;20056;-75
2021/11/27 06:11:26;;;;;;;7.07;2.20;;;;;;;;;;5066561;28;20046;-76
2021/11/27 06:13:52;;;;;;;10.73;2.45;;;;;;;;;;5063513;28;20017;-74
2021/11/27 06:16:18;;;;;;;8.35;2.53;;;;;;;;;;5063907;28;20032;-73
2021/11/27 06:18:45;;;;;;;10.23;2.58;;;;;;;;;;5033070;28;20045;-74
2021/11/27 06:21:11;;;;;;;6.28;2.95;;;;;;;;;;5062915;28;20055;-76
2021/11/27 06:23:37;;;;;;;10.63;2.55;;;;;;;;;;5064663;28;20032;-75
2021/11/27 06:26:03;;;;;;;5.40;2.08;;;;;;;;;;5057022;28;20033;-77
2021/11/27 06:28:30;;;;;;;4.68;1.90;;;;;;;;;;5056250;28;20017;-77
2021/11/27 06:30:56;;;;;;;5.00;2.67;;;;;;;;;;5062708;28;20028;-74
2021/11/27 06:33:23;;;;;;;5.43;2.10;;;;;;;;;;5045615;28;20017;-74
2021/11/27 06:35:49;;;;;;;11.13;2.90;;;;;;;;;;5055577;28;20089;-78
2021/11/27 06:38:15;;;;;;;6.40;2.92;;;;;;;;;;5045644;28;20070;-76
2021/11/27 06:40:41;;;;;;;7.22;2.83;;;;;;;;;;5045996;28;20031;-74
2021/11/27 06:43:07;;;;;;;4.68;2.08;;;;;;;;;;5048205;28;20041;-74
2021/11/27 06:45:34;;;;;;;4.43;2.15;;;;;;;;;;5052651;28;20039;-74
2021/11/27 06:48:00;;;;;;;7.43;2.20;;;;;;;;;;5065762;28;20475;-73
2021/11/27 06:50:26;;;;;;;8.30;3.03;;;;;;;;;;5066557;28;20475;-73
2021/11/27 06:52:52;;;;;;;5.68;2.67;;;;;;;;;;5066910;28;20032;-74
2021/11/27 06:55:18;;;;;;;13.38;2.55;;;;;;;;;;5066482;28;20044;-74
2021/11/27 06:57:45;;;;;;;8.07;2.42;;;;;;;;;;5066685;28;20036;-74
2021/11/27 07:00:11;;;;;;;5.75;2.33;;;;;;;;;;5066296;28;20435;-74
2021/11/27 07:02:37;;;;;;;5.47;2.47;;;;;;;;;;5053928;28;20105;-73
2021/11/27 07:05:04;;;;;;;9.18;2.75;;;;;;;;;;5048244;28;20033;-78
2021/11/27 07:07:30;;;;;;;9.65;2.15;;;;;;;;;;5065340;28;20558;-75
2021/11/27 07:09:56;;;;;;;6.40;2.22;;;;;;;;;;5065547;28;20028;-74
2021/11/27 07:12:22;;;;;;;7.53;3.00;;;;;;;;;;5066392;28;20471;-72
2021/11/27 07:14:49;;;;;;;7.45;2.10;;;;;;;;;;5066327;28;20051;-73
2021/11/27 07:17:15;;;;;;;7.50;2.20;;;;;;;;;;5066315;28;20044;-73
2021/11/27 07:19:41;;;;;;;4.55;2.10;;;;;;;;;;5066425;28;20040;-74
2021/11/27 07:22:07;;;;;;;6.82;2.38;;;;;;;;;;5066433;28;20013;-73
2021/11/27 07:24:33;;;;;;;3.20;2.90;;;;;;;;;;5066640;28;20021;-73
2021/11/27 07:27:03;;;;;;;6.70;2.58;;;;;;;;;;5066489;28;20029;-72
2021/11/27 07:29:32;;;;;;;10.15;2.38;;;;;;;;;;5065998;28;20108;-75
2021/11/27 07:31:58;;;;;;;4.75;1.92;;;;;;;;;;5064723;28;20017;-73
2021/11/27 07:34:24;;;;;;;11.38;2.45;;;;;;;;;;5063732;28;20062;-75
2021/11/27 07:36:50;;;;;;;4.97;2.08;;;;;;;;;;5064695;28;20025;-74
2021/11/27 07:39:17;;;;;;;8.50;2.63;;;;;;;;;;5064997;28;20417;-76
2021/11/27 07:41:43;;;;;;;5.65;2.30;;;;;;;;;;5064747;28;20044;-78
2021/11/27 07:44:09;;;;;;;5.72;2.78;;;;;;;;;;5062910;28;20057;-75
2021/11/27 07:46:35;;;;;;;3.92;2.10;;;;;;;;;;5063900;28;20021;-74
2021/11/27 07:49:01;;;;;;;11.68;3.55;;;;;;;;;;5063621;28;20064;-76
2021/11/27 07:51:30;;;;;;;6.78;2.03;;;;;;;;;;5063871;28;20448;-78
2021/11/27 07:53:56;;;;;;;3.55;2.72;;;;;;;;;;5063723;28;20021;-76
2021/11/27 07:56:23;;;;;;;4.60;2.17;;;;;;;;;;5063714;28;20025;-77
2021/11/27 07:58:49;;;;;;;4.35;2.10;;;;;;;;;;5064051;28;20078;-75
2021/11/27 08:01:15;;;;;;;3.42;1.98;;;;;;;;;;5063970;28;20036;-73
2021/11/27 08:03:41;;;;;;;6.18;2.63;;;;;;;;;;5064516;28;20407;-74
2021/11/27 08:06:07;;;;;;;3.00;2.00;;;;;;;;;;5063476;28;20075;-76
2021/11/27 08:08:34;;;;;;;9.00;2.25;;;;;;;;;;5064361;28;20029;-74
2021/11/27 08:11:00;;;;;;;6.82;2.03;;;;;;;;;;5066623;28;20025;-73
2021/11/27 08:13:26;;;;;;;6.85;2.13;;;;;;;;;;5069469;28;20021;-80
2021/11/27 08:15:55;;;;;;;3.65;2.55;;;;;;;;;;5069151;28;20029;-75
2021/11/27 08:18:21;;;;;;;8.55;1.98;;;;;;;;;;5069071;28;20036;-75
2021/11/27 08:20:49;;;;;;;3.53;1.92;;;;;;;;;;5068131;28;20051;-77
2021/11/27 08:23:16;;;;;;;6.78;1.95;;;;;;;;;;5068259;28;20044;-74
2021/11/27 08:25:43;;;;;;;7.90;2.38;;;;;;;;;;5067250;28;20104;-73
2021/11/27 08:28:09;;;;;;;9.05;2.83;;;;;;;;;;5067940;28;20079;-76
2021/11/27 08:30:35;;;;;;;4.95;2.10;;;;;;;;;;5068274;28;20108;-76
2021/11/27 08:33:01;;;;;;;5.78;2.05;;;;;;;;;;5069297;28;20033;-74
2021/11/27 08:35:27;;;;;;;5.72;2.00;;;;;;;;;;5068900;28;20028;-75
2021/11/27 08:37:53;;;;;;;4.00;1.90;;;;;;;;;;5069450;28;20036;-74
2021/11/27 08:40:19;;;;;;;11.45;2.35;;;;;;;;;;5069364;28;20077;-74
2021/11/27 08:42:46;;;;;;;9.32;2.60;;;;;;;;;;5069444;28;20430;-74
2021/11/27 08:45:13;;;;;;;10.55;2.50;;;;;;;;;;5069144;28;20051;-73
2021/11/27 08:47:39;;;;;;;7.32;2.05;;;;;;;;;;5068540;28;20025;-73
2021/11/27 08:50:05;;;;;;;6.53;2.30;;;;;;;;;;5068111;28;20104;-73
2021/11/27 08:52:31;;;;;;;8.80;2.42;;;;;;;;;;5068263;28;20029;-73
2021/11/27 08:54:57;;;;;;;6.43;2.80;;;;;;;;;;5067755;28;20383;-75
2021/11/27 08:57:24;;;;;;;8.65;2.40;;;;;;;;;;5067148;28;20025;-78
2021/11/27 08:59:50;;;;;;;11.23;2.95;;;;;;;;;;5067092;28;20545;-76
2021/11/27 09:02:17;;;;;;;7.22;2.22;;;;;;;;;;5064021;28;20100;-73
2021/11/27 09:04:43;;;;;;;8.20;2.40;;;;;;;;;;5066917;28;20139;-76
2021/11/27 09:07:09;;;;;;;7.65;2.53;;;;;;;;;;5067539;28;20025;-76
2021/11/27 09:09:35;;;;;;;7.15;3.00;;;;;;;;;;5068499;28;20100;-75
2021/11/27 09:12:02;;;;;;;5.32;2.35;;;;;;;;;;5068355;28;20064;-74
2021/11/27 09:14:29;;;;;;;7.22;2.35;;;;;;;;;;5068525;28;20025;-74
2021/11/27 09:16:55;;;;;;;10.15;3.10;;;;;;;;;;5068317;28;20069;-74
2021/11/27 09:19:21;;;;;;;8.68;3.10;;;;;;;;;;5068284;28;20021;-77
2021/11/27 09:21:50;;;;;;;5.28;2.83;;;;;;;;;;5048881;28;20017;-74
2021/11/27 09:24:16;;;;;;;4.38;2.30;;;;;;;;;;5066893;28;20025;-77
2021/11/27 09:26:43;;;;;;;4.07;2.25;;;;;;;;;;5066788;28;20388;-77
2021/11/27 09:29:09;;;;;;;3.63;2.72;;;;;;;;;;5066262;28;20537;-77
2021/11/27 09:31:39;;;;;;;8.88;2.10;;;;;;;;;;5067123;28;20061;-76
2021/11/27 09:34:06;;;;;;;6.45;1.77;;;;;;;;;;5066265;28;20056;-78
2021/11/27 09:36:32;;;;;;;7.25;2.33;;;;;;;;;;5067633;28;20021;-74
2021/11/27 09:38:58;;;;;;;4.80;2.13;;;;;;;;;;5067822;28;20025;-76
2021/11/27 09:41:28;;;;;;;5.72;2.33;;;;;;;;;;5067071;28;20021;-74
2021/11/27 09:43:55;;;;;;;6.25;1.90;;;;;;;;;;5066291;28;20037;-75
2021/11/27 09:46:22;;;;;;;5.47;2.17;;;;;;;;;;5067530;28;20404;-74
2021/11/27 09:48:51;;;;;;;6.00;2.03;;;;;;;;;;5067467;28;20029;-78
2021/11/27 09:51:21;;;;;;;5.55;1.90;;;;;;;;;;5066729;28;20013;-74
2021/11/27 09:53:48;;;;;;;8.13;1.95;;;;;;;;;;5067695;28;20031;-74
2021/11/27 09:56:16;;;;;;;4.05;2.00;;;;;;;;;;5068195;28;20024;-74
2021/11/27 09:58:42;;;;;;;3.90;2.50;;;;;;;;;;5068140;28;20025;-74
2021/11/27 10:01:08;;;;;;;5.93;2.05;;;;;;;;;;5066912;28;20040;-75
2021/11/27 10:03:34;;;;;;;3.10;2.05;;;;;;;;;;5066514;28;20475;-75
2021/11/27 10:06:01;;;;;;;7.07;3.05;;;;;;;;;;5067281;28;20028;-74
2021/11/27 10:08:27;;;;;;;4.25;2.08;;;;;;;;;;5067325;28;20036;-74
2021/11/27 10:10:53;;;;;;;6.07;2.00;;;;;;;;;;5066170;28;20051;-77
2021/11/27 10:13:20;;;;;;;3.40;1.90;;;;;;;;;;5065361;28;20029;-74
2021/11/27 10:15:46;;;;;;;5.28;2.40;;;;;;;;;;5066496;28;20033;-75
2021/11/27 10:18:22;;;;;;;9.00;2.40;;;;;;;;;;5066131;28;20028;-79
2021/11/27 10:21:08;;;;;;;3.90;2.20;;;;;;;;;;5027802;28;20029;-74
2021/11/27 10:23:34;;;;;;;13.70;2.22;;;;;;;;;;5027621;28;20036;-74
2021/11/27 10:26:00;;;;;;;5.40;2.10;;;;;;;;;;5061476;28;20029;-74
2021/11/27 10:28:28;;;;;;;3.65;2.60;;;;;;;;;;5066387;28;20040;-77
2021/11/27 10:31:05;;;;;;;6.72;1.98;;;;;;;;;;5066529;28;20025;-74
2021/11/27 10:33:37;;;;;;;4.85;1.98;;;;;;;;;;5065507;28;20025;-74
2021/11/27 10:36:05;;;;;;;4.82;2.55;;;;;;;;;;5066994;28;20119;-72
2021/11/27 10:38:56;;;;;;;6.55;2.85;;;;;;;;;;5066274;28;20071;-74
2021/11/27 10:41:23;;;;;;;9.07;2.60;;;;;;;;;;5065967;28;20013;-74
2021/11/27 10:43:59;;;;;;;10.05;3.08;;;;;;;;;;5064685;28;20079;-76
2021/11/27 10:46:27;;;;;;;3.85;2.30;;;;;;;;;;5065504;28;20017;-74
2021/11/27 10:48:53;;;;;;;5.82;1.90;;;;;;;;;;5065321;28;20027;-77
2021/11/27 10:51:20;;;;;;;7.38;2.65;;;;;;;;;;5063479;28;20017;-76
2021/11/27 10:53:52;;;;;;;3.47;2.08;;;;;;;;;;5063148;28;20063;-73
2021/11/27 10:56:18;;;;;;;6.07;1.98;;;;;;;;;;5062372;28;20060;-76
2021/11/27 10:58:56;;;;;;;4.55;1.80;;;;;;;;;;5062448;28;20051;-75
2021/11/27 11:01:22;;;;;;;4.90;2.10;;;;;;;;;;5060534;28;20370;-75
2021/11/27 11:03:49;;;;;;;9.27;2.10;;;;;;;;;;5061229;28;20392;-77
2021/11/27 11:06:33;;;;;;;5.22;1.98;;;;;;;;;;5062996;28;20024;-75
2021/11/27 11:08:59;;;;;;;4.40;2.80;;;;;;;;;;5043518;28;20390;-76
2021/11/27 11:11:26;;;;;;;4.55;2.53;;;;;;;;;;5056899;28;20017;-74
2021/11/27 11:13:55;;;;;;;7.90;2.40;;;;;;;;;;5062700;28;20035;-73
2021/11/27 11:16:26;;;;;;;4.82;2.30;;;;;;;;;;5060444;28;20376;-75
2021/11/27 11:18:53;;;;;;;4.28;2.70;;;;;;;;;;5047499;28;20036;-75
2021/11/27 11:21:20;;;;;;;8.48;3.08;;;;;;;;;;5064808;28;20017;-74
2021/11/27 11:23:47;;;;;;;7.50;2.60;;;;;;;;;;5064249;28;20391;-74
2021/11/27 11:26:23;;;;;;;3.33;2.00;;;;;;;;;;5065091;28;20085;-73
2021/11/27 11:28:54;;;;;;;7.68;2.70;;;;;;;;;;5065678;28;20092;-74
2021/11/27 11:31:22;;;;;;;3.30;1.90;;;;;;;;;;5065499;28;20028;-74
2021/11/27 11:33:49;;;;;;;11.18;4.05;;;;;;;;;;5064608;28;20028;-73
2021/11/27 11:36:17;;;;;;;6.78;3.33;;;;;;;;;;5064110;28;20028;-74
2021/11/27 11:38:47;;;;;;;6.65;2.00;;;;;;;;;;5064374;28;20075;-76
2021/11/27 11:41:14;;;;;;;4.35;2.08;;;;;;;;;;5064630;28;20021;-75
2021/11/27 11:43:40;;;;;;;10.20;2.47;;;;;;;;;;5064181;28;20037;-73
2021/11/27 11:46:07;;;;;;;5.53;2.33;;;;;;;;;;5065503;28;20443;-73
2021/11/27 11:48:33;;;;;;;6.40;2.60;;;;;;;;;;5068290;28;20017;-78
2021/11/27 11:51:02;;;;;;;5.32;2.67;;;;;;;;;;5068420;28;20031;-75
2021/11/27 11:53:39;;;;;;;6.32;3.47;;;;;;;;;;5068705;28;20025;-74
2021/11/27 11:56:07;;;;;;;6.05;2.53;;;;;;;;;;5067906;28;20036;-76
2021/11/27 11:58:37;;;;;;;5.63;2.67;;;;;;;;;;5068569;28;20021;-77
2021/11/27 12:01:28;;;;;;;11.40;2.60;;;;;;;;;;5050461;28;20029;-75
2021/11/27 12:03:54;;;;;;;7.45;3.42;;;;;;;;;;5068550;28;20030;-76
2021/11/27 12:06:25;;;;;;;7.93;4.28;;;;;;;;;;5068937;28;20029;-74
2021/11/27 12:08:51;;;;;;;6.88;3.10;;;;;;;;;;5068991;28;20025;-75
2021/11/27 12:11:36;;;;;;;5.93;2.72;;;;;;;;;;5050025;28;20017;-77
2021/11/27 12:14:02;;;;;;;7.22;3.10;;;;;;;;;;5066279;28;20060;-76
2021/11/27 12:16:28;;;;;;;9.07;3.40;;;;;;;;;;5064051;28;20021;-76
2021/11/27 12:19:10;;;;;;;8.85;3.10;;;;;;;;;;5045122;28;20024;-75
2021/11/27 12:21:36;;;;;;;12.45;4.80;;;;;;;;;;5062023;28;20024;-75
2021/11/27 12:24:02;;;;;;;12.10;4.55;;;;;;;;;;5064308;28;20476;-76
2021/11/27 12:26:29;;;;;;;13.43;5.97;;;;;;;;;;5061787;28;20029;-74
2021/11/27 12:28:56;;;;;;;11.60;4.50;;;;;;;;;;5044678;28;20081;-76
2021/11/27 12:31:26;;;;;;;11.57;3.92;;;;;;;;;;5044116;28;20047;-76
2021/11/27 12:33:57;;;;;;;8.00;3.60;;;;;;;;;;5062513;28;20057;-75
2021/11/27 12:36:30;;;;;;;6.95;3.05;;;;;;;;;;5062651;28;20102;-74
2021/11/27 12:39:01;;;;;;;6.47;3.38;;;;;;;;;;5062360;28;20017;-76
2021/11/27 12:41:34;;;;;;;11.48;3.10;;;;;;;;;;5044067;28;20087;-75
2021/11/27 12:44:19;;;;;;;7.65;3.00;;;;;;;;;;5062021;28;20051;-76
2021/11/27 12:46:47;;;;;;;5.90;2.92;;;;;;;;;;5061935;28;20033;-75
2021/11/27 12:49:32;;;;;;;7.80;3.20;;;;;;;;;;5061922;28;20025;-76
2021/11/27 12:52:17;;;;;;;5.20;2.90;;;;;;;;;;5043952;28;20084;-76
2021/11/27 12:54:45;;;;;;;5.88;2.42;;;;;;;;;;5061611;28;20279;-73
2021/11/27 12:57:14;;;;;;;7.30;2.88;;;;;;;;;;5042945;28;20560;-75
2021/11/27 12:59:44;;;;;;;6.43;2.75;;;;;;;;;;5064043;28;20471;-76
2021/11/27 13:02:15;;;;;;;10.48;2.70;;;;;;;;;;5065542;28;20032;-74
2021/11/27 13:04:41;;;;;;;4.70;3.13;;;;;;;;;;5061820;28;20114;-76
2021/11/27 13:07:07;;;;;;;9.52;3.05;;;;;;;;;;5063668;28;20060;-74
2021/11/27 13:09:33;;;;;;;7.25;2.95;;;;;;;;;;5063803;28;20507;-76
2021/11/27 13:12:00;;;;;;;5.90;2.50;;;;;;;;;;5059266;28;20061;-77
2021/11/27 13:14:33;;;;;;;3.08;2.40;;;;;;;;;;5058753;28;20021;-75
2021/11/27 13:17:08;;;;;;;6.20;2.95;;;;;;;;;;5064128;28;20079;-71
2021/11/27 13:19:34;;;;;;;;;;;;;;;;;;5063310;28;20112;-78
2021/11/27 13:22:04;;;;;;;7.03;2.60;;;;;;;;;;5063157;28;20330;-78
2021/11/27 13:35:23;;;;;;;6.00;3.00;;;;;;;;;;5123109;27;20421;-79
2021/11/27 13:37:51;;;;;;;8.73;3.40;;;;;;;;;;5125875;28;20034;-80
2021/11/27 13:40:17;;;;;;;7.00;3.40;;;;;;;;;;5118880;28;20393;-77
2021/11/27 13:42:43;;;;;;;5.72;3.15;;;;;;;;;;5098477;28;20028;-78
2021/11/27 13:45:09;;;;;;;7.68;3.20;;;;;;;;;;5099735;28;20560;-78
2021/11/27 13:47:35;;;;;;;4.80;2.90;;;;;;;;;;5112531;28;20092;-80
2021/11/27 13:50:06;;;;;;;6.82;2.80;;;;;;;;;;5110610;28;20382;-78
2021/11/27 13:52:36;;;;;;;7.03;3.35;;;;;;;;;;5111904;28;20073;-77
2021/11/27 13:55:08;;;;;;;9.18;4.15;;;;;;;;;;5109163;28;20020;-77
2021/11/27 13:57:35;;;;;;;9.57;3.80;;;;;;;;;;5112489;28;20020;-78
2021/11/27 14:00:18;;;;;;;7.57;4.40;;;;;;;;;;5113885;28;20023;-76
2021/11/27 14:02:44;;;;;;;11.18;5.85;;;;;;;;;;5113830;28;20043;-80
2021/11/27 14:05:10;;;;;;;8.55;4.35;;;;;;;;;;5102538;28;20047;-78
2021/11/27 14:07:45;;;;;;;7.40;3.08;;;;;;;;;;5098688;28;20107;-77
2021/11/27 14:10:14;;;;;;;6.97;2.80;;;;;;;;;;5097026;28;20021;-79
2021/11/27 14:12:40;;;;;;;7.97;2.45;;;;;;;;;;5098119;28;20282;-78
2021/11/27 14:15:06;;;;;;;5.82;2.75;;;;;;;;;;5097716;28;20130;-77
2021/11/27 14:17:32;;;;;;;5.40;2.58;;;;;;;;;;5093645;28;20071;-77
2021/11/27 14:20:18;;;;;;;9.13;3.17;;;;;;;;;;5092636;28;20028;-79
2021/11/27 14:22:44;;;;;;;;;;;;;;;;;;5090546;28;20036;-78
2021/11/27 14:25:10;;;;;;;;;;;;;;;;;;5092649;28;19905;-78
2021/11/27 14:27:36;;;;;;;;;;;;;;;;;;5092368;28;19904;-78
2021/11/27 14:30:02;;;;;;;;;;;;;;;;;;5095564;28;20290;-76
2021/11/27 14:32:29;;;;;;;;;;;;;;;;;;5111301;28;20363;-77
2021/11/27 14:34:56;;;;;;;8.82;4.10;;;;;;;;;;5107554;28;19919;-80
2021/11/27 14:37:22;;;;;;;4.93;2.85;;;;;;;;;;5100589;28;20139;-77
2021/11/27 14:39:55;;;;;;;6.57;3.13;;;;;;;;;;5098883;28;20027;-78
2021/11/27 14:42:27;;;;;;;7.93;3.10;;;;;;;;;;5098538;28;20024;-76
2021/11/27 14:45:04;;;;;;;4.40;2.72;;;;;;;;;;5098438;28;20380;-77
2021/11/27 14:47:30;;;;;;;9.63;3.05;;;;;;;;;;5101084;28;20070;-78
2021/11/27 14:49:58;;;;;;;5.70;3.15;;;;;;;;;;5096986;28;20031;-79
2021/11/27 14:52:24;;;;;;;6.13;2.80;;;;;;;;;;5097052;28;20024;-77
2021/11/27 14:54:54;;;;;;;7.72;3.03;;;;;;;;;;5097985;28;20441;-77
2021/11/27 14:57:22;;;;;;;5.68;2.78;;;;;;;;;;5101016;28;20024;-77